createdAt,value
2017-07-25T00:01:57.580Z,79.49
2017-07-25T00:04:24.978Z,79.47
2017-07-25T00:06:52.379Z,79.56
2017-07-25T00:09:19.776Z,79.15
2017-07-25T00:11:47.175Z,79.08
2017-07-25T00:14:14.583Z,79.47
2017-07-25T00:16:41.979Z,79.78
2017-07-25T00:19:09.382Z,80.57
2017-07-25T00:21:36.782Z,81.19
2017-07-25T00:24:04.182Z,81.23
2017-07-25T00:26:31.578Z,81.08
2017-07-25T00:28:59.291Z,81.41
2017-07-25T00:31:26.690Z,80.95
2017-07-25T00:33:54.095Z,80.98
2017-07-25T00:36:21.702Z,81.10
2017-07-25T00:38:49.104Z,81.01
2017-07-25T00:41:16.494Z,81.30
2017-07-25T00:43:43.919Z,81.53
2017-07-25T00:46:11.306Z,82.14
2017-07-25T00:48:38.707Z,82.33
2017-07-25T00:51:06.116Z,82.71
2017-07-25T00:53:33.506Z,82.26
2017-07-25T00:56:00.902Z,82.68
2017-07-25T00:58:28.298Z,83.08
2017-07-25T01:00:55.702Z,83.36
2017-07-25T01:03:23.094Z,83.38
2017-07-25T01:05:50.499Z,83.49
2017-07-25T01:08:17.895Z,84.15
2017-07-25T01:10:45.298Z,83.73
2017-07-25T01:13:12.998Z,83.86
2017-07-25T01:15:40.414Z,83.57
2017-07-25T01:18:07.810Z,83.29
2017-07-25T01:20:35.226Z,82.93
2017-07-25T01:23:02.623Z,82.80
2017-07-25T01:25:30.027Z,82.20
2017-07-25T01:27:57.431Z,82.50
2017-07-25T01:30:24.827Z,82.22
2017-07-25T01:32:52.228Z,81.63
2017-07-25T01:35:19.643Z,81.62
2017-07-25T01:37:47.042Z,81.23
2017-07-25T01:40:14.438Z,80.70
2017-07-25T01:42:41.840Z,80.60
2017-07-25T01:45:09.239Z,80.78
2017-07-25T01:47:36.646Z,80.75
2017-07-25T01:50:04.037Z,81.22
2017-07-25T01:52:31.439Z,81.33
2017-07-25T01:54:58.834Z,81.17
2017-07-25T01:57:26.259Z,81.50
2017-07-25T01:59:53.659Z,81.71
2017-07-25T02:02:21.051Z,82.08
2017-07-25T02:04:48.450Z,82.70
2017-07-25T02:07:16.122Z,82.26
2017-07-25T02:09:43.783Z,82.14
2017-07-25T02:12:11.188Z,81.81
2017-07-25T02:14:38.586Z,81.64
2017-07-25T02:17:05.979Z,82.12
2017-07-25T02:19:33.379Z,82.33
2017-07-25T02:22:00.783Z,82.47
2017-07-25T02:24:28.187Z,82.35
2017-07-25T02:26:55.611Z,82.17
2017-07-25T02:29:23.002Z,81.92
2017-07-25T02:31:50.404Z,81.84
2017-07-25T02:34:18.043Z,81.42
2017-07-25T02:36:45.623Z,81.84
2017-07-25T02:39:13.011Z,81.36
2017-07-25T02:41:40.627Z,81.74
2017-07-25T02:44:08.278Z,81.62
2017-07-25T02:46:35.674Z,81.99
2017-07-25T02:49:03.086Z,81.91
2017-07-25T02:51:30.480Z,82.19
2017-07-25T02:53:57.878Z,82.09
2017-07-25T02:56:25.275Z,81.93
2017-07-25T02:58:52.683Z,81.95
2017-07-25T03:01:20.083Z,82.01
2017-07-25T03:03:47.482Z,82.16
2017-07-25T03:06:14.874Z,82.35
2017-07-25T03:08:42.281Z,82.63
2017-07-25T03:11:09.674Z,82.63
2017-07-25T03:13:37.086Z,82.65
2017-07-25T03:16:04.535Z,82.40
2017-07-25T03:18:32.167Z,82.25
2017-07-25T03:20:59.562Z,82.58
2017-07-25T03:23:36.533Z,83.12
2017-07-25T03:26:04.158Z,83.50
2017-07-25T03:28:31.550Z,83.68
2017-07-25T03:30:58.957Z,84.07
2017-07-25T03:33:26.353Z,84.36
2017-07-25T03:35:53.759Z,84.36
2017-07-25T03:38:21.155Z,84.67
2017-07-25T03:40:48.550Z,84.80
2017-07-25T03:43:15.976Z,85.23
2017-07-25T03:45:43.358Z,85.14
2017-07-25T03:48:10.777Z,85.27
2017-07-25T03:50:38.171Z,85.56
2017-07-25T03:53:05.574Z,85.34
2017-07-25T03:55:32.967Z,85.47
2017-07-25T03:58:00.371Z,85.14
2017-07-25T04:00:27.773Z,84.84
2017-07-25T04:02:55.168Z,85.00
2017-07-25T04:05:22.847Z,85.39
2017-07-25T04:07:50.250Z,84.97
2017-07-25T04:10:17.650Z,85.17
2017-07-25T04:12:45.047Z,85.50
2017-07-25T04:15:12.447Z,85.92
2017-07-25T04:17:39.851Z,86.13
2017-07-25T04:20:07.250Z,85.88
2017-07-25T04:22:34.646Z,86.31
2017-07-25T04:25:02.052Z,86.56
2017-07-25T04:27:29.447Z,86.63
2017-07-25T04:29:56.848Z,86.39
2017-07-25T04:32:24.250Z,86.35
2017-07-25T04:34:51.639Z,86.07
2017-07-25T04:37:19.038Z,85.94
2017-07-25T04:39:46.726Z,85.43
2017-07-25T04:42:14.122Z,85.95
2017-07-25T04:44:41.515Z,85.46
2017-07-25T04:47:08.931Z,85.65
2017-07-25T04:49:36.319Z,85.63
2017-07-25T04:52:03.722Z,85.40
2017-07-25T04:54:31.114Z,85.52
2017-07-25T04:56:58.533Z,85.94
2017-07-25T04:59:25.928Z,86.24
2017-07-25T05:01:53.439Z,86.78
2017-07-25T05:04:20.838Z,86.70
2017-07-25T05:06:48.250Z,87.17
2017-07-25T05:09:15.633Z,87.37
2017-07-25T05:11:43.039Z,86.85
2017-07-25T05:14:10.437Z,87.37
2017-07-25T05:16:37.843Z,87.31
2017-07-25T05:19:05.240Z,87.40
2017-07-25T05:21:32.689Z,87.25
2017-07-25T05:24:00.057Z,87.25
2017-07-25T05:26:27.459Z,87.07
2017-07-25T05:28:54.847Z,87.39
2017-07-25T05:31:22.330Z,87.32
2017-07-25T05:33:49.763Z,87.12
2017-07-25T05:36:17.182Z,87.24
2017-07-25T05:38:44.867Z,87.38
2017-07-25T05:41:12.262Z,87.19
2017-07-25T05:43:39.682Z,86.93
2017-07-25T05:46:07.072Z,86.92
2017-07-25T05:48:34.471Z,86.95
2017-07-25T05:51:01.876Z,87.01
2017-07-25T05:53:29.278Z,87.38
2017-07-25T05:55:56.666Z,86.98
2017-07-25T05:58:24.060Z,86.86
2017-07-25T06:00:51.522Z,87.25
2017-07-25T06:03:19.222Z,86.67
2017-07-25T06:05:46.886Z,86.40
2017-07-25T06:08:14.468Z,86.62
2017-07-25T06:10:41.886Z,86.85
2017-07-25T06:13:09.363Z,86.83
2017-07-25T06:15:36.742Z,86.94
2017-07-25T06:18:04.157Z,86.69
2017-07-25T06:20:31.542Z,86.69
2017-07-25T06:22:58.945Z,87.25
2017-07-25T06:25:26.339Z,87.64
2017-07-25T06:27:53.733Z,87.60
2017-07-25T06:30:21.354Z,87.54
2017-07-25T06:32:48.750Z,87.19
2017-07-25T06:35:16.147Z,87.77
2017-07-25T06:37:43.538Z,87.75
2017-07-25T06:40:10.939Z,87.26
2017-07-25T06:42:38.633Z,87.49
2017-07-25T06:45:06.023Z,87.76
2017-07-25T06:47:33.419Z,87.39
2017-07-25T06:50:00.839Z,87.90
2017-07-25T06:52:28.223Z,87.37
2017-07-25T06:54:55.621Z,87.25
2017-07-25T06:57:23.025Z,87.07
2017-07-25T06:59:50.410Z,87.29
2017-07-25T07:02:17.795Z,86.37
2017-07-25T07:04:45.194Z,86.46
2017-07-25T07:07:12.594Z,86.32
2017-07-25T07:09:39.985Z,86.26
2017-07-25T07:12:07.376Z,86.40
2017-07-25T07:14:34.762Z,86.38
2017-07-25T07:17:02.168Z,87.02
2017-07-25T07:19:29.556Z,87.42
2017-07-25T07:21:56.950Z,87.33
2017-07-25T07:24:24.349Z,87.57
2017-07-25T07:26:51.776Z,87.05
2017-07-25T07:29:19.183Z,87.17
2017-07-25T07:31:46.576Z,87.32
2017-07-25T07:34:13.986Z,87.58
2017-07-25T07:36:41.375Z,87.12
2017-07-25T07:39:08.763Z,87.26
2017-07-25T07:41:36.178Z,87.56
2017-07-25T07:44:03.590Z,87.37
2017-07-25T07:46:30.973Z,87.57
2017-07-25T07:48:58.384Z,88.04
2017-07-25T07:51:25.775Z,87.33
2017-07-25T07:53:53.178Z,87.63
2017-07-25T07:56:20.575Z,87.70
2017-07-25T07:58:47.978Z,87.58
2017-07-25T08:01:15.611Z,87.18
2017-07-25T08:03:43.014Z,87.59
2017-07-25T08:06:10.399Z,87.48
2017-07-25T08:08:37.795Z,87.30
2017-07-25T08:11:05.198Z,87.46
2017-07-25T08:13:32.578Z,87.53
2017-07-25T08:15:59.979Z,87.25
2017-07-25T08:18:27.384Z,87.10
2017-07-25T08:20:54.779Z,87.42
2017-07-25T08:23:22.174Z,87.37
2017-07-25T08:25:49.566Z,86.74
2017-07-25T08:28:16.962Z,86.96
2017-07-25T08:30:44.380Z,87.08
2017-07-25T08:33:11.765Z,87.25
2017-07-25T08:35:39.158Z,87.19
2017-07-25T08:38:06.541Z,86.79
2017-07-25T08:40:33.933Z,86.80
2017-07-25T08:43:01.328Z,86.44
2017-07-25T08:45:28.723Z,86.08
2017-07-25T08:47:56.110Z,86.36
2017-07-25T08:50:23.511Z,86.27
2017-07-25T08:52:50.910Z,86.20
2017-07-25T08:55:18.315Z,86.45
2017-07-25T08:57:45.716Z,86.73
2017-07-25T09:00:13.122Z,86.25
2017-07-25T09:02:40.507Z,86.73
2017-07-25T09:05:07.931Z,86.91
2017-07-25T09:07:35.318Z,85.88
2017-07-25T09:10:02.710Z,85.07
2017-07-25T09:12:30.098Z,84.09
2017-07-25T09:14:57.496Z,83.90
2017-07-25T09:17:24.875Z,83.47
2017-07-25T09:19:52.286Z,84.23
2017-07-25T09:22:19.688Z,84.42
2017-07-25T09:24:47.079Z,84.78
2017-07-25T09:27:14.471Z,84.84
2017-07-25T09:29:41.859Z,85.44
2017-07-25T09:32:09.253Z,85.15
2017-07-25T09:34:36.630Z,84.99
2017-07-25T09:37:04.035Z,85.46
2017-07-25T09:39:31.425Z,86.15
2017-07-25T09:41:58.831Z,85.41
2017-07-25T09:44:26.218Z,85.40
2017-07-25T09:46:53.622Z,86.55
2017-07-25T09:49:21.008Z,86.76
2017-07-25T09:51:48.401Z,86.71
2017-07-25T09:54:15.805Z,87.11
2017-07-25T09:56:43.214Z,86.53
2017-07-25T09:59:10.603Z,86.41
2017-07-25T10:01:38.002Z,86.35
2017-07-25T10:04:05.393Z,85.74
2017-07-25T10:06:32.791Z,85.65
2017-07-25T10:09:00.192Z,87.00
2017-07-25T10:11:27.590Z,86.10
2017-07-25T10:13:55.106Z,86.10
2017-07-25T10:16:22.498Z,86.48
2017-07-25T10:18:49.890Z,86.31
2017-07-25T10:21:17.570Z,87.17
2017-07-25T10:23:44.962Z,86.67
2017-07-25T10:26:12.363Z,85.93
2017-07-25T10:28:39.797Z,85.95
2017-07-25T10:31:07.195Z,85.62
2017-07-25T10:33:34.593Z,86.65
2017-07-25T10:36:02.011Z,83.86
2017-07-25T10:38:29.409Z,86.62
2017-07-25T10:40:56.811Z,84.44
2017-07-25T10:43:24.202Z,84.38
2017-07-25T10:45:51.611Z,84.04
2017-07-25T10:48:19.007Z,84.41
2017-07-25T10:50:46.390Z,82.49
2017-07-25T10:53:13.794Z,84.11
2017-07-25T10:55:41.219Z,84.42
2017-07-25T10:58:08.623Z,84.35
2017-07-25T11:00:36.014Z,82.34
2017-07-25T11:03:03.415Z,82.25
2017-07-25T11:05:30.810Z,83.53
2017-07-25T11:07:58.531Z,81.67
2017-07-25T11:10:25.923Z,81.51
2017-07-25T11:12:53.319Z,81.21
2017-07-25T11:15:20.710Z,81.38
2017-07-25T11:17:48.109Z,82.50
2017-07-25T11:20:15.508Z,82.40
2017-07-25T11:22:42.932Z,81.69
2017-07-25T11:25:10.319Z,80.86
2017-07-25T11:27:37.715Z,80.51
2017-07-25T11:30:05.105Z,81.19
2017-07-25T11:32:32.496Z,81.24
2017-07-25T11:34:59.879Z,80.19
2017-07-25T11:37:27.282Z,80.29
2017-07-25T11:39:54.683Z,79.76
2017-07-25T11:42:22.074Z,80.19
2017-07-25T11:44:49.462Z,80.77
2017-07-25T11:47:16.858Z,80.95
2017-07-25T11:49:44.242Z,81.46
2017-07-25T11:52:11.662Z,82.31
2017-07-25T11:54:39.062Z,82.67
2017-07-25T11:57:06.458Z,81.93
2017-07-25T11:59:34.654Z,80.89
2017-07-25T12:02:02.045Z,81.32
2017-07-25T12:04:29.443Z,81.64
2017-07-25T12:06:56.898Z,82.25
2017-07-25T12:09:24.282Z,82.26
2017-07-25T12:11:51.679Z,82.12
2017-07-25T12:14:19.074Z,82.08
2017-07-25T12:16:46.887Z,81.99
2017-07-25T12:19:14.288Z,81.08
2017-07-25T12:21:46.463Z,80.82
2017-07-25T12:24:13.856Z,81.83
2017-07-25T12:26:41.251Z,82.29
2017-07-25T12:29:08.684Z,82.48
2017-07-25T12:31:36.035Z,82.34
2017-07-25T12:34:03.435Z,82.56
2017-07-25T12:36:30.858Z,81.25
2017-07-25T12:38:58.255Z,82.41
2017-07-25T12:41:25.627Z,80.57
2017-07-25T12:43:53.020Z,81.50
2017-07-25T12:46:20.400Z,80.49
2017-07-25T12:48:47.790Z,81.41
2017-07-25T12:51:15.183Z,80.58
2017-07-25T12:53:42.571Z,81.97
2017-07-25T12:56:09.954Z,81.48
2017-07-25T12:58:37.663Z,81.09
2017-07-25T13:01:17.207Z,80.90
2017-07-25T13:03:44.604Z,80.83
2017-07-25T13:06:12.231Z,81.42
2017-07-25T13:08:39.610Z,81.47
2017-07-25T13:11:06.997Z,81.62
2017-07-25T13:13:34.378Z,81.42
2017-07-25T13:16:01.780Z,81.22
2017-07-25T13:18:29.154Z,80.84
2017-07-25T13:20:56.551Z,80.99
2017-07-25T13:23:23.943Z,80.65
2017-07-25T13:25:51.349Z,81.23
2017-07-25T13:28:18.720Z,81.92
2017-07-25T13:30:46.103Z,81.69
2017-07-25T13:33:13.485Z,81.62
2017-07-25T13:35:40.908Z,82.01
2017-07-25T13:38:08.286Z,82.07
2017-07-25T13:40:35.702Z,81.51
2017-07-25T13:43:03.087Z,81.13
2017-07-25T13:45:30.479Z,80.75
2017-07-25T13:47:57.865Z,80.86
2017-07-25T13:50:25.251Z,80.92
2017-07-25T13:52:52.640Z,81.37
2017-07-25T13:55:20.028Z,81.55
2017-07-25T13:57:47.411Z,80.44
2017-07-25T14:00:14.802Z,80.82
2017-07-25T14:02:42.192Z,81.64
2017-07-25T14:05:09.582Z,82.30
2017-07-25T14:07:36.964Z,81.88
2017-07-25T14:10:04.355Z,81.64
2017-07-25T14:12:31.739Z,82.63
2017-07-25T14:14:59.131Z,81.66
2017-07-25T14:17:26.514Z,81.68
2017-07-25T14:19:53.902Z,82.13
2017-07-25T14:22:21.292Z,81.66
2017-07-25T14:24:48.702Z,80.45
2017-07-25T14:27:16.081Z,80.37
2017-07-25T14:29:43.466Z,79.98
2017-07-25T14:32:10.855Z,81.20
2017-07-25T14:34:38.239Z,80.23
2017-07-25T14:37:05.630Z,80.94
2017-07-25T14:39:33.018Z,80.45
2017-07-25T14:42:00.402Z,80.87
2017-07-25T14:44:27.787Z,80.19
2017-07-25T14:46:55.183Z,79.95
2017-07-25T14:49:25.755Z,80.66
2017-07-25T14:51:53.142Z,81.91
2017-07-25T14:54:20.527Z,81.57
2017-07-25T14:56:47.935Z,82.00
2017-07-25T14:59:15.322Z,82.17
2017-07-25T15:01:42.707Z,81.29
2017-07-25T15:04:10.087Z,80.54
2017-07-25T15:06:37.482Z,79.12
2017-07-25T15:09:04.870Z,79.87
2017-07-25T15:11:32.261Z,79.25
2017-07-25T15:13:59.648Z,79.61
2017-07-25T15:16:27.030Z,80.22
2017-07-25T15:18:54.411Z,80.04
2017-07-25T15:21:21.799Z,79.71
2017-07-25T15:23:49.183Z,80.02
2017-07-25T15:26:16.578Z,79.67
2017-07-25T15:28:43.959Z,79.60
2017-07-25T15:31:11.346Z,79.13
2017-07-25T15:33:38.738Z,78.08
2017-07-25T15:36:06.132Z,79.71
2017-07-25T15:38:33.541Z,79.17
2017-07-25T15:41:00.927Z,79.16
2017-07-25T15:43:28.295Z,78.24
2017-07-25T15:45:55.671Z,77.68
2017-07-25T15:48:23.075Z,77.24
2017-07-25T15:50:50.463Z,77.72
2017-07-25T15:53:17.870Z,77.61
2017-07-25T15:55:45.238Z,76.94
2017-07-25T15:58:12.635Z,76.55
2017-07-25T16:00:40.023Z,76.81
2017-07-25T16:03:07.411Z,77.31
2017-07-25T16:05:34.812Z,77.10
2017-07-25T16:08:02.203Z,77.56
2017-07-25T16:10:29.582Z,77.67
2017-07-25T16:12:56.965Z,77.25
2017-07-25T16:15:24.353Z,77.14
2017-07-25T16:17:51.801Z,77.41
2017-07-25T16:20:19.188Z,77.61
2017-07-25T16:22:46.587Z,78.32
2017-07-25T16:25:13.968Z,78.26
2017-07-25T16:27:41.358Z,78.18
2017-07-25T16:30:08.978Z,77.46
2017-07-25T16:32:36.371Z,77.79
2017-07-25T16:35:03.751Z,76.66
2017-07-25T16:37:31.136Z,76.18
2017-07-25T16:39:58.526Z,76.56
2017-07-25T16:42:25.914Z,77.37
2017-07-25T16:44:53.298Z,77.53
2017-07-25T16:47:20.691Z,77.16
2017-07-25T16:49:48.078Z,77.03
2017-07-25T16:52:15.466Z,77.16
2017-07-25T16:54:42.852Z,77.54
2017-07-25T16:57:10.251Z,77.17
2017-07-25T16:59:37.638Z,77.09
2017-07-25T17:02:05.030Z,76.43
2017-07-25T17:04:32.415Z,77.21
2017-07-25T17:06:59.804Z,77.18
2017-07-25T17:09:27.220Z,77.53
2017-07-25T17:11:54.598Z,77.07
2017-07-25T17:14:21.985Z,77.37
2017-07-25T17:16:49.377Z,77.37
2017-07-25T17:19:16.838Z,76.94
2017-07-25T17:21:44.239Z,77.00
2017-07-25T17:24:11.624Z,77.44
2017-07-25T17:26:39.001Z,77.68
2017-07-25T17:29:06.614Z,77.50
2017-07-25T17:31:33.995Z,77.31
2017-07-25T17:34:01.382Z,77.74
2017-07-25T17:36:28.772Z,77.70
2017-07-25T17:38:56.164Z,77.57
2017-07-25T17:41:23.547Z,77.23
2017-07-25T17:43:50.944Z,77.21
2017-07-25T17:46:18.323Z,77.31
2017-07-25T17:48:45.719Z,77.45
2017-07-25T17:51:13.106Z,76.84
2017-07-25T17:53:40.489Z,77.18
2017-07-25T17:56:07.867Z,76.91
2017-07-25T17:58:35.267Z,77.20
2017-07-25T18:01:02.651Z,76.98
2017-07-25T18:03:30.049Z,77.64
2017-07-25T18:05:57.430Z,77.88
2017-07-25T18:08:24.825Z,78.47
2017-07-25T18:10:52.234Z,78.64
2017-07-25T18:13:19.627Z,78.40
2017-07-25T18:15:47.012Z,79.39
2017-07-25T18:18:14.402Z,79.15
2017-07-25T18:20:41.812Z,78.08
2017-07-25T18:23:09.179Z,78.67
2017-07-25T18:25:36.570Z,78.98
2017-07-25T18:28:03.956Z,79.75
2017-07-25T18:30:31.347Z,79.96
2017-07-25T18:32:58.786Z,79.66
2017-07-25T18:35:26.180Z,79.97
2017-07-25T18:37:53.635Z,79.56
2017-07-25T18:40:21.018Z,79.86
2017-07-25T18:42:48.407Z,79.91
2017-07-25T18:45:15.809Z,79.60
2017-07-25T18:47:43.189Z,79.50
2017-07-25T18:50:10.587Z,79.54
2017-07-25T18:52:37.975Z,79.71
2017-07-25T18:55:05.359Z,79.94
2017-07-25T18:57:32.738Z,80.40
2017-07-25T19:00:00.126Z,80.55
2017-07-25T19:02:27.510Z,79.85
2017-07-25T19:04:54.898Z,79.83
2017-07-25T19:07:22.569Z,79.91
2017-07-25T19:09:49.950Z,80.18
2017-07-25T19:12:17.335Z,79.48
2017-07-25T19:14:44.727Z,79.79
2017-07-25T19:17:12.114Z,79.66
2017-07-25T19:19:39.508Z,79.27
2017-07-25T19:22:06.980Z,79.97
2017-07-25T19:24:34.354Z,79.30
2017-07-25T19:27:01.737Z,78.79
2017-07-25T19:29:29.148Z,79.92
2017-07-25T19:31:56.539Z,80.23
2017-07-25T19:34:24.148Z,80.30
2017-07-25T19:36:51.539Z,80.43
2017-07-25T19:39:18.920Z,80.48
2017-07-25T19:41:46.306Z,80.11
2017-07-25T19:44:13.756Z,80.33
2017-07-25T19:46:41.138Z,80.57
2017-07-25T19:49:08.520Z,80.15
2017-07-25T19:51:35.907Z,81.33
2017-07-25T19:54:03.294Z,80.49
2017-07-25T19:56:30.666Z,80.64
2017-07-25T19:58:58.055Z,80.87
2017-07-25T20:01:25.451Z,80.62
2017-07-25T20:03:52.830Z,80.40
2017-07-25T20:06:20.219Z,81.26
2017-07-25T20:08:47.602Z,80.74
2017-07-25T20:11:15.214Z,80.44
2017-07-25T20:13:42.594Z,80.72
2017-07-25T20:16:09.993Z,80.71
2017-07-25T20:18:37.367Z,80.48
2017-07-25T20:21:04.766Z,80.20
2017-07-25T20:23:32.150Z,80.83
2017-07-25T20:25:59.548Z,80.55
2017-07-25T20:28:26.922Z,80.54
2017-07-25T20:30:54.313Z,80.60
2017-07-25T20:33:21.690Z,79.91
2017-07-25T20:35:49.087Z,80.52
2017-07-25T20:38:16.471Z,80.51
2017-07-25T20:40:43.862Z,80.66
2017-07-25T20:43:11.240Z,80.58
2017-07-25T20:45:38.834Z,81.17
2017-07-25T20:48:06.223Z,80.56
2017-07-25T20:50:33.603Z,80.31
2017-07-25T20:53:01.002Z,80.65
2017-07-25T20:55:28.386Z,80.98
2017-07-25T20:57:55.784Z,81.05
2017-07-25T21:00:23.170Z,81.26
2017-07-25T21:02:50.555Z,81.25
2017-07-25T21:05:19.274Z,81.26
2017-07-25T21:07:46.666Z,81.55
2017-07-25T21:10:14.262Z,81.25
2017-07-25T21:12:41.654Z,80.54
2017-07-25T21:15:09.042Z,81.33
2017-07-25T21:17:36.436Z,81.05
2017-07-25T21:20:03.820Z,81.48
2017-07-25T21:22:31.206Z,81.71
2017-07-25T21:24:58.599Z,81.57
2017-07-25T21:27:25.989Z,81.66
2017-07-25T21:29:53.374Z,81.28
2017-07-25T21:32:20.767Z,80.91
2017-07-25T21:34:48.161Z,81.41
2017-07-25T21:37:15.546Z,80.46
2017-07-25T21:39:42.936Z,81.23
2017-07-25T21:42:10.320Z,81.14
2017-07-25T21:44:37.711Z,81.71
2017-07-25T21:47:05.099Z,81.01
2017-07-25T21:49:32.497Z,81.19
2017-07-25T21:51:59.888Z,81.42
2017-07-25T21:54:27.272Z,82.05
2017-07-25T21:56:54.657Z,82.23
2017-07-25T21:59:23.292Z,82.38
2017-07-25T22:02:02.568Z,82.29
2017-07-25T22:04:41.642Z,82.68
2017-07-25T22:07:09.034Z,82.70
2017-07-25T22:09:36.419Z,82.77
2017-07-25T22:12:03.808Z,82.87
2017-07-25T22:14:31.411Z,82.82
2017-07-25T22:16:58.794Z,83.21
2017-07-25T22:19:26.408Z,83.46
2017-07-25T22:21:53.791Z,83.00
2017-07-25T22:24:21.203Z,82.86
2017-07-25T22:26:48.585Z,82.89
2017-07-25T22:29:15.975Z,83.12
2017-07-25T22:31:43.363Z,82.60
2017-07-25T22:34:10.755Z,82.50
2017-07-25T22:36:38.139Z,82.16
2017-07-25T22:39:05.536Z,82.69
2017-07-25T22:41:32.915Z,82.65
2017-07-25T22:44:00.310Z,83.45
2017-07-25T22:46:27.695Z,83.82
2017-07-25T22:48:55.083Z,84.26
2017-07-25T22:51:22.869Z,84.39
2017-07-25T22:53:50.267Z,84.55
2017-07-25T22:56:17.655Z,84.64
2017-07-25T22:58:45.035Z,84.48
2017-07-25T23:01:12.430Z,84.48
2017-07-25T23:03:39.815Z,84.85
2017-07-25T23:06:07.221Z,84.63
2017-07-25T23:08:34.591Z,85.06
2017-07-25T23:11:01.984Z,85.33
2017-07-25T23:13:29.591Z,85.78
2017-07-25T23:15:56.974Z,85.50
2017-07-25T23:18:24.351Z,85.39
2017-07-25T23:20:51.739Z,85.32
2017-07-25T23:23:19.131Z,85.91
2017-07-25T23:25:46.527Z,85.92
2017-07-25T23:28:13.915Z,85.99
2017-07-25T23:30:41.311Z,86.39
2017-07-25T23:33:08.696Z,86.84
2017-07-25T23:35:36.086Z,86.45
2017-07-25T23:38:03.511Z,86.26
2017-07-25T23:40:30.899Z,86.84
2017-07-25T23:42:58.278Z,87.00
2017-07-25T23:45:25.744Z,87.25
2017-07-25T23:47:53.128Z,87.09
2017-07-25T23:50:20.529Z,86.97
2017-07-25T23:52:47.911Z,86.34
2017-07-25T23:55:15.304Z,86.28
2017-07-25T23:57:42.697Z,86.52
